Flight Track Log - Related Links

Times and Time Zones

All times are in EDT time to prevent confusion due to time zone crossing. See the ERR240 flight status page for this flight to view local times or setup timezone preferences in your user account.

Time Position Orientation Groundspeed Altitude Reporting Facility
EDT Latitude Longitude Course Direction KTS MPH feet Rate Location/Type
Fri 02:16:16 PM 63.7000 -170.5500 68° East 170 196 2,900  Level Anchorage Center
Fri 02:17:16 PM 63.7167 -170.4500 69° East 180 207 5,300 2,331 Climbing Anchorage Center
Fri 02:18:17 PM 63.7333 -170.3333 72° East 180 207 7,600 2,331 Climbing Anchorage Center
Fri 02:19:17 PM 63.7500 -170.2167 72° East 190 219 10,000 2,218 Climbing Anchorage Center
Fri 02:20:16 PM 63.7667 -170.1000 72° East 190 219 12,000 1,900 Climbing Anchorage Center
Fri 02:21:00 PM 63.8263 -169.6566 68° East  Level FlightAware Approximate
Fri 02:21:17 PM 63.7833 -169.9833 72° East 200 230 13,800  Level Anchorage Center
Fri 02:22:17 PM 63.8000 -169.8500 74° East 220 253 15,000 600 Climbing Anchorage Center
Fri 02:23:17 PM 63.8167 -169.7167 74° East 240 276 15,000  Level Anchorage Center
Fri 02:24:17 PM 63.8500 -169.5667 63° Northeast 230 265 15,000  Level Anchorage Center
Fri 02:25:17 PM 63.8667 -169.4333 74° East 240 276 15,000  Level Anchorage Center
Fri 02:26:17 PM 63.9000 -169.2833 63° Northeast 240 276 15,000  Level Anchorage Center
Fri 02:27:17 PM 63.9167 -169.1500 74° East 230 265 15,000  Level Anchorage Center
Fri 02:28:17 PM 63.9500 -169.0167 60° Northeast 240 276 15,000  Level Anchorage Center
Fri 02:29:17 PM 63.9667 -168.8833 74° East 240 276 15,000  Level Anchorage Center
Fri 02:30:18 PM 63.9833 -168.7333 76° East 230 265 15,000  Level Anchorage Center
Fri 02:31:18 PM 64.0167 -168.6000 60° Northeast 230 265 15,000  Level Anchorage Center
Fri 02:32:18 PM 64.0333 -168.4500 76° East 230 265 15,000  Level Anchorage Center
Fri 02:33:18 PM 64.0667 -168.3167 60° Northeast 230 265 15,000  Level Anchorage Center
Fri 02:34:18 PM 64.0833 -168.1833 74° East 230 265 15,000  Level Anchorage Center
Fri 02:35:18 PM 64.1000 -168.0333 76° East 230 265 15,000  Level Anchorage Center
Fri 02:36:18 PM 64.1333 -167.9000 60° Northeast 230 265 15,000  Level Anchorage Center
Fri 02:37:18 PM 64.1500 -167.7500 76° East 230 265 15,000  Level Anchorage Center
Fri 02:38:19 PM 64.1667 -167.6167 74° East 230 265 15,000  Level Anchorage Center
Fri 02:39:19 PM 64.2000 -167.4833 60° Northeast 230 265 15,000  Level Anchorage Center
Fri 02:40:19 PM 64.2167 -167.3333 76° East 230 265 15,000  Level Anchorage Center
Fri 02:41:19 PM 64.2500 -167.2000 60° Northeast 230 265 15,000 -422 Level Anchorage Center
Fri 02:43:24 PM 64.2833 -166.9000 76° East 250 288 13,700 -941 Descending Anchorage Center
Fri 02:44:24 PM 64.3167 -166.7500 63° Northeast 250 288 12,100 -1,500 Descending Anchorage Center
Fri 02:45:24 PM 64.3333 -166.5833 77° East 250 288 10,700 -1,438 Descending Anchorage Center
Fri 02:46:25 PM 64.3500 -166.4333 76° East 250 288 9,200 -1,438 Descending Anchorage Center
Fri 02:47:25 PM 64.3833 -166.2667 65° Northeast 250 288 7,800 -1,563 Descending Anchorage Center
Fri 02:48:24 PM 64.4000 -166.1167 76° East 250 288 6,100 -1,550 Descending Anchorage Center
Fri 02:49:25 PM 64.4333 -165.9667 63° Northeast 250 288 4,700 -1,339 Descending Anchorage Center
Fri 02:50:25 PM 64.4500 -165.8167 75° East 240 276 3,400 -1,200 Descending Anchorage Center
Fri 02:51:25 PM 64.4667 -165.6667 75° East 240 276 2,300 -1,150 Descending Anchorage Center
Fri 02:52:25 PM 64.4833 -165.5333 74° East 230 265 1,100 -650 Descending Anchorage Center
Fri 02:53:25 PM 64.4833 -165.4167 90° East 150 173 1,000 -400 Descending Anchorage Center
Fri 02:54:25 PM 64.5000 -165.4000 23° Northeast 110 127 300 -700 Descending Anchorage Center
Fri 02:56:00 PM 64.5000 -165.4333 78° East  Level FlightAware Approximate
Fri 03:03:00 PM 64.5122 -165.4453 78° East  Level Estimated
Fri 03:04:00 PM 64.5122 -165.4453 78° East  Level Estimated
Fri 03:05:00 PM 64.5122 -165.4453 78° East  Level Estimated
Fri 03:06:00 PM 64.5122 -165.4453 78° East  Level Estimated

Login

Don't have an account? Register now (free) for customized features, flight alerts, and more!